Time;durP1;ratioP1;P1;durP2;ratioP2;P2;SDS_P1;SDS_P2;PMS_P1;PMS_P2;Temp;Humidity;BMP_temperature;BMP_pressure;BME280_temperature;BME280_humidity;BME280_pressure;Samples;Min_cycle;Max_cycle;Signal;HPM_P1;HPM_P2
2023/04/24 00:00:25;;;;;;;2.83;1.00;;;10.70;99.90;;;;;;5012555;28;20565;-79
2023/04/24 00:02:56;;;;;;;0.80;0.60;;;10.70;99.90;;;;;;5012988;28;20226;-80
2023/04/24 00:05:24;;;;;;;1.00;0.90;;;10.70;99.90;;;;;;5012749;28;20294;-79
2023/04/24 00:07:52;;;;;;;1.53;0.90;;;10.70;99.90;;;;;;5018292;28;20225;-83
2023/04/24 00:10:19;;;;;;;1.97;0.83;;;10.70;99.90;;;;;;5032754;28;20237;-80
2023/04/24 00:12:46;;;;;;;1.57;0.90;;;10.70;99.90;;;;;;5007385;28;20762;-79
2023/04/24 00:15:13;;;;;;;1.87;0.80;;;10.70;99.90;;;;;;5012964;28;20203;-78
2023/04/24 00:17:40;;;;;;;1.90;0.90;;;10.60;99.90;;;;;;5013031;28;20571;-77
2023/04/24 00:20:11;;;;;;;1.10;0.90;;;10.60;99.90;;;;;;5012183;28;20207;-80
2023/04/24 00:22:38;;;;;;;1.77;1.13;;;10.60;99.90;;;;;;5012685;28;20602;-79
2023/04/24 00:25:06;;;;;;;1.23;0.90;;;10.60;99.90;;;;;;5012913;28;20234;-80
2023/04/24 00:27:34;;;;;;;1.00;0.87;;;10.60;99.90;;;;;;5011897;28;20815;-79
2023/04/24 00:30:01;;;;;;;1.07;0.90;;;10.60;99.90;;;;;;5012156;28;20540;-77
2023/04/24 00:32:28;;;;;;;0.87;0.80;;;10.60;99.90;;;;;;5012766;28;20889;-78
2023/04/24 00:34:55;;;;;;;1.27;0.87;;;10.60;99.90;;;;;;5011887;28;20282;-77
2023/04/24 00:37:23;;;;;;;2.40;1.00;;;10.60;99.90;;;;;;5009849;28;20230;-78
2023/04/24 00:39:50;;;;;;;4.30;1.30;;;10.60;99.90;;;;;;5012353;28;20195;-78
2023/04/24 00:42:17;;;;;;;1.20;1.10;;;10.60;99.90;;;;;;5012026;28;20295;-78
2023/04/24 00:44:44;;;;;;;5.90;1.20;;;10.60;99.90;;;;;;5011998;28;20201;-77
2023/04/24 00:47:12;;;;;;;3.67;3.00;;;10.60;99.90;;;;;;5004588;28;20207;-77
2023/04/24 00:49:39;;;;;;;3.77;3.33;;;10.70;99.90;;;;;;5011842;28;20238;-80
2023/04/24 00:52:07;;;;;;;4.23;2.73;;;10.70;99.90;;;;;;5016228;28;20213;-79
2023/04/24 00:54:35;;;;;;;3.97;3.37;;;10.70;99.90;;;;;;5016565;28;20199;-81
2023/04/24 00:57:03;;;;;;;7.20;5.70;;;10.80;99.90;;;;;;5015717;28;20286;-79
2023/04/24 00:59:30;;;;;;;9.23;6.07;;;10.80;99.90;;;;;;5021596;28;20599;-78
2023/04/24 01:01:57;;;;;;;8.47;5.83;;;10.90;99.90;;;;;;5035764;28;20241;-81
2023/04/24 01:04:25;;;;;;;6.90;4.60;;;10.90;99.90;;;;;;5036106;28;20207;-79
2023/04/24 01:06:53;;;;;;;7.73;5.30;;;10.90;99.90;;;;;;5035858;28;20201;-80
2023/04/24 01:09:21;;;;;;;10.37;7.23;;;10.90;99.90;;;;;;5034525;28;20718;-79
2023/04/24 01:11:50;;;;;;;8.90;6.20;;;10.90;99.90;;;;;;5035628;28;20498;-77
2023/04/24 01:14:17;;;;;;;8.77;5.37;;;11.00;99.90;;;;;;5035768;28;20229;-78
2023/04/24 01:16:44;;;;;;;8.13;4.97;;;11.00;99.90;;;;;;5029189;28;20199;-81
2023/04/24 01:19:11;;;;;;;12.77;6.77;;;11.00;99.90;;;;;;5015837;28;20198;-77
2023/04/24 01:21:39;;;;;;;11.77;6.43;;;11.00;99.90;;;;;;5016205;28;20199;-81
2023/04/24 01:24:08;;;;;;;7.23;5.87;;;11.00;99.90;;;;;;5009705;28;20207;-82
2023/04/24 01:26:35;;;;;;;10.47;6.20;;;11.00;99.90;;;;;;5017574;28;20278;-84
2023/04/24 01:29:02;;;;;;;9.43;6.13;;;11.00;99.90;;;;;;5025589;28;20239;-83
2023/04/24 01:31:30;;;;;;;10.47;6.30;;;11.00;99.90;;;;;;5016166;28;20317;-82
2023/04/24 01:33:57;;;;;;;13.50;5.57;;;11.10;99.90;;;;;;5017453;28;20191;-85
2023/04/24 01:36:27;;;;;;;8.47;4.83;;;11.00;99.90;;;;;;5017498;28;20199;-84
2023/04/24 01:38:54;;;;;;;11.87;4.57;;;11.00;99.90;;;;;;5017096;28;20207;-84
2023/04/24 01:41:23;;;;;;;8.33;3.77;;;10.90;99.90;;;;;;5016966;28;20266;-83
2023/04/24 01:43:50;;;;;;;12.33;3.30;;;10.80;99.90;;;;;;5017172;28;20286;-83
2023/04/24 01:46:17;;;;;;;12.70;3.63;;;10.80;99.90;;;;;;5008842;28;20219;-83
2023/04/24 01:48:46;;;;;;;6.17;2.00;;;10.80;99.90;;;;;;4997446;28;20223;-83
2023/04/24 01:51:13;;;;;;;7.57;1.97;;;10.70;99.90;;;;;;4996997;28;20264;-83
2023/04/24 01:53:39;;;;;;;8.30;1.83;;;10.60;99.90;;;;;;4997379;28;20694;-83
2023/04/24 01:56:07;;;;;;;8.43;1.77;;;10.60;99.90;;;;;;4997106;28;20585;-81
2023/04/24 01:58:36;;;;;;;7.80;1.67;;;10.60;99.90;;;;;;4996627;28;20283;-82
2023/04/24 02:01:02;;;;;;;3.50;1.30;;;10.60;99.90;;;;;;4996957;28;20616;-82
2023/04/24 02:03:29;;;;;;;4.40;1.57;;;10.50;99.90;;;;;;4996045;28;20204;-83
2023/04/24 02:05:56;;;;;;;4.00;1.87;;;10.50;99.90;;;;;;4996912;28;20627;-82
2023/04/24 02:08:23;;;;;;;6.53;2.53;;;10.40;99.90;;;;;;4997179;28;20255;-83
2023/04/24 02:10:50;;;;;;;5.63;1.80;;;10.40;99.90;;;;;;4997489;28;20204;-83
2023/04/24 02:13:17;;;;;;;6.10;1.83;;;10.40;99.90;;;;;;4996490;28;20203;-83
2023/04/24 02:15:45;;;;;;;5.50;1.57;;;10.40;99.90;;;;;;4997018;28;20615;-83
2023/04/24 02:18:12;;;;;;;7.27;1.50;;;10.30;99.90;;;;;;4997329;28;20599;-84
2023/04/24 02:20:39;;;;;;;4.70;1.20;;;10.40;99.90;;;;;;4997159;28;20199;-84
2023/04/24 02:23:06;;;;;;;2.57;1.20;;;10.40;99.90;;;;;;4998010;28;20222;-81
2023/04/24 02:25:34;;;;;;;3.57;1.30;;;10.40;99.90;;;;;;5015056;28;20239;-84
2023/04/24 02:28:00;;;;;;;4.50;1.70;;;10.40;99.90;;;;;;5015298;28;20215;-79
2023/04/24 02:30:27;;;;;;;1.83;1.27;;;10.30;99.90;;;;;;5016575;28;20572;-81
2023/04/24 02:32:56;;;;;;;6.73;2.60;;;10.30;99.90;;;;;;5026341;28;20705;-84
2023/04/24 02:35:23;;;;;;;4.83;2.60;;;10.40;99.90;;;;;;5038320;28;20475;-84
2023/04/24 02:37:50;;;;;;;5.93;3.10;;;10.30;99.90;;;;;;5038483;28;20278;-83
2023/04/24 02:40:17;;;;;;;8.13;2.80;;;10.30;99.90;;;;;;5024179;28;20207;-85
2023/04/24 02:42:44;;;;;;;5.30;2.13;;;10.40;99.90;;;;;;5020417;28;20213;-85
2023/04/24 02:45:11;;;;;;;3.83;1.80;;;10.40;99.90;;;;;;5022293;28;20222;-85
2023/04/24 02:47:38;;;;;;;6.00;2.17;;;10.30;99.90;;;;;;5024263;28;20290;-85
2023/04/24 02:50:08;;;;;;;2.97;1.70;;;10.30;99.90;;;;;;5029556;28;20607;-86
2023/04/24 02:52:35;;;;;;;4.73;1.87;;;10.30;99.90;;;;;;5039639;28;20238;-86
2023/04/24 02:55:02;;;;;;;3.67;1.60;;;10.30;99.90;;;;;;5045562;28;20214;-87
2023/04/24 02:57:29;;;;;;;6.43;1.60;;;10.30;99.90;;;;;;5043926;28;20202;-82
2023/04/24 02:59:56;;;;;;;2.23;1.40;;;10.30;99.90;;;;;;5022869;28;20202;-85
2023/04/24 03:02:22;;;;;;;5.27;1.70;;;10.30;99.90;;;;;;5020731;28;20647;-85
2023/04/24 03:04:49;;;;;;;2.97;1.50;;;10.30;99.90;;;;;;5016423;28;20282;-86
2023/04/24 03:07:20;;;;;;;7.40;1.27;;;10.20;99.90;;;;;;5023016;28;20590;-87
2023/04/24 03:09:47;;;;;;;4.37;1.33;;;10.20;99.90;;;;;;5035887;28;20223;-86
2023/04/24 03:12:14;;;;;;;4.17;1.30;;;10.20;99.90;;;;;;5035859;28;20199;-85
2023/04/24 03:14:41;;;;;;;4.70;1.50;;;10.10;99.90;;;;;;5020800;28;20209;-85
2023/04/24 03:17:07;;;;;;;6.43;1.97;;;10.10;99.90;;;;;;5019310;28;20231;-86
2023/04/24 03:19:34;;;;;;;3.83;1.20;;;10.10;99.90;;;;;;5023099;28;20342;-85
2023/04/24 03:22:02;;;;;;;4.63;1.30;;;10.10;99.90;;;;;;5024693;28;20199;-86
2023/04/24 03:24:31;;;;;;;4.40;1.30;;;10.00;99.90;;;;;;5035923;28;20241;-86
2023/04/24 03:26:58;;;;;;;4.33;1.33;;;10.00;99.90;;;;;;5025991;28;20211;-85
2023/04/24 03:29:25;;;;;;;5.50;2.03;;;10.00;99.90;;;;;;5004091;28;20242;-85
2023/04/24 03:31:52;;;;;;;3.67;1.70;;;10.00;99.90;;;;;;4996209;28;20231;-84
2023/04/24 03:34:19;;;;;;;7.93;2.07;;;10.00;99.90;;;;;;4996652;28;20211;-85
2023/04/24 03:36:47;;;;;;;5.90;1.90;;;10.00;99.90;;;;;;4995899;28;20254;-83
2023/04/24 03:39:14;;;;;;;4.67;1.80;;;10.10;99.90;;;;;;4995895;28;20208;-86
2023/04/24 03:41:42;;;;;;;10.47;2.97;;;10.10;99.90;;;;;;4995926;28;20200;-84
2023/04/24 03:44:09;;;;;;;6.00;1.50;;;10.10;99.90;;;;;;4995629;28;20206;-85
2023/04/24 03:46:36;;;;;;;5.77;1.70;;;10.20;99.90;;;;;;5003218;28;20217;-84
2023/04/24 03:49:03;;;;;;;5.90;1.70;;;10.20;99.90;;;;;;5014219;28;20220;-79
2023/04/24 03:51:31;;;;;;;4.17;2.03;;;10.20;99.90;;;;;;4994530;28;20314;-84
2023/04/24 03:53:58;;;;;;;6.47;3.20;;;10.20;99.90;;;;;;4995109;28;20208;-84
2023/04/24 03:56:25;;;;;;;9.33;3.53;;;10.30;99.90;;;;;;4995510;28;20192;-84
2023/04/24 03:58:53;;;;;;;3.13;1.93;;;10.30;99.90;;;;;;4994578;28;20228;-83
2023/04/24 04:01:20;;;;;;;2.10;1.53;;;10.30;99.90;;;;;;4994836;28;20199;-82
2023/04/24 04:03:47;;;;;;;1.10;1.00;;;10.30;99.90;;;;;;4993908;28;20192;-78
2023/04/24 04:06:14;;;;;;;1.53;1.07;;;10.30;99.90;;;;;;4993324;28;20193;-82
2023/04/24 04:08:41;;;;;;;1.30;1.13;;;10.30;99.90;;;;;;4993333;28;20232;-78
2023/04/24 04:11:08;;;;;;;4.73;1.20;;;10.30;99.90;;;;;;4993414;28;20199;-78
2023/04/24 04:13:35;;;;;;;4.17;1.93;;;10.30;99.90;;;;;;5006388;28;20234;-79
2023/04/24 04:16:03;;;;;;;2.50;1.27;;;10.30;99.90;;;;;;5013203;28;20504;-79
2023/04/24 04:18:30;;;;;;;3.07;1.50;;;10.20;99.90;;;;;;5013025;28;20282;-81
2023/04/24 04:20:57;;;;;;;2.47;1.50;;;10.30;99.90;;;;;;4997757;28;20592;-80
2023/04/24 04:23:24;;;;;;;2.33;1.30;;;10.30;99.90;;;;;;4993879;28;20204;-80
2023/04/24 04:25:51;;;;;;;5.53;1.43;;;10.40;99.90;;;;;;4992438;28;20306;-78
2023/04/24 04:28:19;;;;;;;3.33;1.60;;;10.30;99.90;;;;;;4995730;28;20263;-80
2023/04/24 04:30:47;;;;;;;3.07;1.30;;;10.30;99.90;;;;;;5012399;28;20540;-79
2023/04/24 04:33:16;;;;;;;4.47;1.60;;;10.30;99.90;;;;;;5012182;28;20678;-78
2023/04/24 04:35:43;;;;;;;7.53;2.63;;;10.30;99.90;;;;;;5022639;28;20285;-81
2023/04/24 04:38:10;;;;;;;7.80;2.30;;;10.30;99.90;;;;;;5032289;28;20206;-78
2023/04/24 04:40:37;;;;;;;3.47;2.30;;;10.30;99.90;;;;;;5025607;28;20286;-79
2023/04/24 04:43:04;;;;;;;10.00;3.33;;;10.30;99.90;;;;;;5012318;28;20285;-76
2023/04/24 04:45:32;;;;;;;7.43;4.27;;;10.30;99.90;;;;;;5012664;28;20491;-79
2023/04/24 04:48:00;;;;;;;6.17;3.87;;;10.20;99.90;;;;;;5011953;28;20210;-79
2023/04/24 04:50:28;;;;;;;13.67;6.53;;;10.20;99.90;;;;;;5012531;28;20338;-77
2023/04/24 04:52:55;;;;;;;11.63;7.63;;;10.20;99.90;;;;;;5012373;28;20211;-76
2023/04/24 04:55:22;;;;;;;9.63;6.93;;;10.10;99.90;;;;;;5011989;28;20265;-79
2023/04/24 04:57:49;;;;;;;14.43;6.93;;;10.00;99.90;;;;;;5011989;28;20207;-79
2023/04/24 05:00:16;;;;;;;14.37;7.50;;;9.90;99.90;;;;;;5012390;28;20203;-79
2023/04/24 05:02:43;;;;;;;21.30;11.23;;;9.90;99.90;;;;;;5011778;28;20214;-78
2023/04/24 05:05:10;;;;;;;21.87;12.50;;;9.90;99.90;;;;;;5013814;28;20286;-78
2023/04/24 05:07:38;;;;;;;26.00;15.43;;;9.80;99.90;;;;;;5031896;28;20203;-78
2023/04/24 05:10:06;;;;;;;27.10;15.30;;;9.70;99.90;;;;;;5030160;28;20230;-81
2023/04/24 05:12:33;;;;;;;27.50;14.93;;;9.60;99.90;;;;;;5032508;28;20282;-81
2023/04/24 05:15:00;;;;;;;33.43;14.53;;;9.60;99.90;;;;;;5031772;28;20202;-79
2023/04/24 05:17:27;;;;;;;20.53;12.97;;;9.60;99.90;;;;;;5026923;28;20209;-79
2023/04/24 05:19:54;;;;;;;22.87;12.13;;;9.60;99.90;;;;;;5011985;28;20195;-77
2023/04/24 05:22:21;;;;;;;29.70;14.23;;;9.60;99.90;;;;;;5011405;28;20200;-80
2023/04/24 05:24:49;;;;;;;19.60;11.83;;;9.60;99.90;;;;;;5011676;28;20211;-79
2023/04/24 05:27:17;;;;;;;20.77;10.67;;;9.60;99.90;;;;;;5011021;28;20211;-79
2023/04/24 05:29:44;;;;;;;22.57;11.20;;;9.60;99.90;;;;;;4995757;28;20243;-78
2023/04/24 05:32:10;;;;;;;18.93;11.00;;;9.50;99.90;;;;;;4983908;28;20258;-79
2023/04/24 05:34:37;;;;;;;23.20;11.47;;;9.50;99.90;;;;;;4992746;28;20287;-83
2023/04/24 05:37:08;;;;;;;21.03;9.73;;;9.50;99.90;;;;;;5001272;28;20215;-83
2023/04/24 05:39:34;;;;;;;20.40;9.50;;;9.50;99.90;;;;;;5017182;28;20192;-82
2023/04/24 05:42:04;;;;;;;18.30;9.70;;;9.50;99.90;;;;;;5017145;28;20294;-82
2023/04/24 05:44:31;;;;;;;22.90;9.97;;;9.50;99.90;;;;;;5014962;28;20277;-83
2023/04/24 05:46:58;;;;;;;18.80;9.97;;;9.50;99.90;;;;;;5016663;28;20199;-82
2023/04/24 05:49:24;;;;;;;15.90;8.83;;;9.50;99.90;;;;;;5016565;28;20315;-78
2023/04/24 05:51:51;;;;;;;14.33;7.67;;;9.40;99.90;;;;;;4997165;28;20218;-79
2023/04/24 05:54:18;;;;;;;17.50;7.97;;;9.40;99.90;;;;;;4996106;28;20638;-81
2023/04/24 05:56:46;;;;;;;13.10;7.70;;;9.40;99.90;;;;;;4995937;28;20204;-81
2023/04/24 05:59:14;;;;;;;16.47;8.03;;;9.40;99.90;;;;;;4995387;28;20204;-84
2023/04/24 06:01:41;;;;;;;17.70;7.60;;;9.50;99.90;;;;;;4996286;28;20204;-81
2023/04/24 06:04:08;;;;;;;12.90;7.70;;;9.50;99.90;;;;;;4996684;28;20605;-83
2023/04/24 06:06:36;;;;;;;16.20;7.77;;;9.50;99.90;;;;;;4995211;28;20200;-81
2023/04/24 06:09:03;;;;;;;14.27;7.43;;;9.50;99.90;;;;;;4996340;28;20234;-82
2023/04/24 06:11:30;;;;;;;15.13;7.43;;;9.50;99.90;;;;;;5011853;28;20199;-82
2023/04/24 06:13:57;;;;;;;22.77;7.90;;;9.60;99.90;;;;;;5015436;28;20290;-83
2023/04/24 06:16:26;;;;;;;18.00;7.30;;;9.60;99.90;;;;;;5015600;28;20652;-81
2023/04/24 06:18:52;;;;;;;18.07;7.13;;;9.60;99.90;;;;;;5007116;28;20283;-81
2023/04/24 06:21:19;;;;;;;12.83;6.33;;;9.60;99.90;;;;;;4996328;28;20290;-81
2023/04/24 06:23:47;;;;;;;19.57;7.30;;;9.60;99.90;;;;;;4995963;28;20227;-81
2023/04/24 06:26:14;;;;;;;18.23;6.20;;;9.70;99.90;;;;;;4995261;28;20601;-83
2023/04/24 06:28:41;;;;;;;18.73;6.40;;;9.60;99.90;;;;;;5001216;28;20258;-82
2023/04/24 06:31:08;;;;;;;21.07;7.07;;;9.60;99.90;;;;;;5015168;28;20241;-82
2023/04/24 06:33:36;;;;;;;14.67;6.67;;;9.60;99.90;;;;;;5029329;28;20238;-80
2023/04/24 06:36:03;;;;;;;16.73;6.03;;;9.70;99.90;;;;;;5034966;28;20211;-80
2023/04/24 06:38:30;;;;;;;16.87;6.50;;;9.70;99.90;;;;;;5017668;28;20218;-79
2023/04/24 06:40:57;;;;;;;17.73;6.50;;;9.70;99.90;;;;;;5014893;28;20310;-82
2023/04/24 06:43:24;;;;;;;19.27;6.30;;;9.70;99.90;;;;;;5030118;28;20236;-82
2023/04/24 06:45:51;;;;;;;24.60;5.83;;;9.70;99.90;;;;;;5034763;28;20230;-81
2023/04/24 06:55:24;;;;;;;12.97;5.20;;;9.70;99.90;;;;;;4989764;28;20664;-79
2023/04/24 06:57:51;;;;;;;19.67;5.13;;;9.50;99.90;;;;;;5031307;28;20230;-80
2023/04/24 07:00:18;;;;;;;16.00;5.23;;;9.50;99.90;;;;;;5023444;28;20246;-80
2023/04/24 07:02:45;;;;;;;19.23;4.33;;;9.50;99.90;;;;;;5027053;28;20228;-78
2023/04/24 07:05:12;;;;;;;18.33;4.73;;;9.50;99.90;;;;;;5014239;28;20221;-77
2023/04/24 07:07:40;;;;;;;16.00;4.27;;;9.40;99.90;;;;;;5027209;28;20547;-79
2023/04/24 07:10:08;;;;;;;19.90;4.70;;;9.40;99.90;;;;;;5031704;28;20229;-79
2023/04/24 07:12:37;;;;;;;20.57;5.77;;;9.40;99.90;;;;;;5014890;28;20199;-80
2023/04/24 07:15:11;;;;;;;17.57;4.83;;;9.40;99.90;;;;;;5030487;28;20206;-77
2023/04/24 07:17:42;;;;;;;15.70;3.87;;;9.40;99.90;;;;;;5033861;28;20502;-80
2023/04/24 07:20:10;;;;;;;17.77;3.83;;;9.40;99.90;;;;;;5026308;28;20533;-81
2023/04/24 07:22:38;;;;;;;14.37;3.87;;;9.40;99.90;;;;;;5014325;28;20195;-82
2023/04/24 07:25:05;;;;;;;15.10;4.83;;;9.40;99.90;;;;;;5013914;28;20512;-79
2023/04/24 07:27:32;;;;;;;18.30;4.60;;;9.30;99.90;;;;;;5014021;28;20203;-80
2023/04/24 07:30:01;;;;;;;15.80;3.70;;;9.40;99.90;;;;;;4996512;28;20550;-82
2023/04/24 07:32:28;;;;;;;23.87;4.83;;;9.30;99.90;;;;;;4993700;28;20553;-82
2023/04/24 07:34:55;;;;;;;15.87;3.80;;;9.40;99.90;;;;;;4993449;28;20207;-80
2023/04/24 07:37:21;;;;;;;11.13;3.10;;;9.40;99.90;;;;;;4992992;28;20604;-81
2023/04/24 07:39:48;;;;;;;18.43;5.00;;;9.30;99.90;;;;;;4993679;28;20236;-80
2023/04/24 07:42:15;;;;;;;18.67;4.00;;;9.30;99.90;;;;;;4992889;28;20196;-77
2023/04/24 07:44:42;;;;;;;13.30;3.40;;;9.40;99.90;;;;;;4993032;28;20206;-80
2023/04/24 07:47:10;;;;;;;14.90;3.50;;;9.30;99.90;;;;;;4994007;28;20596;-80
2023/04/24 07:49:37;;;;;;;12.83;2.60;;;9.40;99.90;;;;;;4998344;28;20227;-79
2023/04/24 07:52:05;;;;;;;15.10;3.83;;;9.40;99.90;;;;;;5013214;28;20191;-79
2023/04/24 07:54:32;;;;;;;12.57;3.43;;;9.40;99.90;;;;;;5013562;28;20206;-80
2023/04/24 07:57:00;;;;;;;14.50;3.47;;;9.40;99.90;;;;;;5008631;28;20196;-80
2023/04/24 07:59:27;;;;;;;7.80;2.60;;;9.40;99.90;;;;;;4994177;28;20200;-80
2023/04/24 08:01:54;;;;;;;11.57;2.73;;;9.50;99.90;;;;;;4993450;28;20208;-79
2023/04/24 08:04:22;;;;;;;10.53;2.53;;;9.50;99.90;;;;;;4993329;28;20262;-79
2023/04/24 08:06:49;;;;;;;8.87;2.57;;;9.60;99.90;;;;;;4993648;28;20283;-85
2023/04/24 08:09:16;;;;;;;7.60;2.67;;;9.60;99.90;;;;;;4997494;28;20218;-80
2023/04/24 08:11:43;;;;;;;17.67;3.10;;;9.60;99.90;;;;;;5009614;28;20703;-79
2023/04/24 08:14:12;;;;;;;8.53;2.50;;;9.70;99.90;;;;;;5004583;28;20220;-83
2023/04/24 08:16:39;;;;;;;7.47;2.33;;;9.70;99.90;;;;;;5000541;28;20580;-81
2023/04/24 08:19:06;;;;;;;10.73;2.40;;;9.70;99.90;;;;;;4998863;28;20600;-81
2023/04/24 08:21:34;;;;;;;12.57;3.30;;;9.70;99.90;;;;;;4990634;28;20196;-81
2023/04/24 08:24:04;;;;;;;10.73;3.53;;;9.80;99.90;;;;;;5005748;28;20665;-79
2023/04/24 08:26:32;;;;;;;11.47;3.20;;;9.80;99.90;;;;;;5010031;28;20262;-82
2023/04/24 08:28:59;;;;;;;10.47;2.97;;;9.80;99.90;;;;;;5012419;28;20234;-81
2023/04/24 08:31:26;;;;;;;14.47;3.07;;;9.70;99.90;;;;;;5037838;28;20248;-82
2023/04/24 08:33:52;;;;;;;14.30;3.60;;;9.70;99.90;;;;;;5033863;28;21417;-79
2023/04/24 08:36:19;;;;;;;9.73;2.50;;;9.60;99.90;;;;;;5045584;28;20486;-81
2023/04/24 08:38:48;;;;;;;11.97;2.87;;;9.60;99.90;;;;;;5027902;28;20502;-81
2023/04/24 08:41:16;;;;;;;12.17;2.43;;;9.60;99.90;;;;;;5031069;28;20787;-80
2023/04/24 08:43:43;;;;;;;8.43;2.70;;;9.60;99.90;;;;;;5031686;28;20206;-79
2023/04/24 08:46:11;;;;;;;10.40;2.30;;;9.60;99.90;;;;;;5011643;28;20285;-79
2023/04/24 08:48:40;;;;;;;12.43;2.40;;;9.60;99.90;;;;;;5012149;28;20277;-79
2023/04/24 08:51:09;;;;;;;12.43;2.97;;;9.70;99.90;;;;;;5012189;28;20223;-80
2023/04/24 08:53:36;;;;;;;8.30;2.37;;;9.70;99.90;;;;;;5018053;28;20285;-79
2023/04/24 08:56:05;;;;;;;11.47;2.30;;;9.70;99.90;;;;;;5032320;28;20201;-81
2023/04/24 08:58:32;;;;;;;6.43;2.00;;;9.80;99.90;;;;;;5014772;28;20207;-78
2023/04/24 09:01:00;;;;;;;8.37;2.40;;;9.80;99.90;;;;;;5031822;28;20201;-79
2023/04/24 09:03:28;;;;;;;9.57;3.53;;;9.80;99.90;;;;;;5012518;28;20257;-81
2023/04/24 09:05:58;;;;;;;13.13;2.43;;;9.80;99.90;;;;;;5012660;28;20209;-79
2023/04/24 09:08:26;;;;;;;5.43;2.00;;;9.90;99.90;;;;;;5011645;28;20596;-79
2023/04/24 09:10:53;;;;;;;7.37;2.30;;;9.90;99.90;;;;;;5012035;28;20223;-80
2023/04/24 09:13:21;;;;;;;8.63;2.10;;;9.90;99.90;;;;;;5020878;28;20291;-82
2023/04/24 09:15:48;;;;;;;8.07;2.20;;;10.00;99.90;;;;;;5035311;28;20202;-78
2023/04/24 09:18:15;;;;;;;9.60;2.03;;;10.10;99.90;;;;;;5035853;28;20683;-81
2023/04/24 09:21:01;;;;;;;5.97;1.80;;;10.00;99.90;;;;;;5035656;28;20285;-81
2023/04/24 09:23:29;;;;;;;5.13;1.40;;;10.00;99.90;;;;;;5015849;28;20497;-79
2023/04/24 09:25:57;;;;;;;8.57;1.80;;;10.00;99.90;;;;;;5016397;28;20199;-79
2023/04/24 09:28:30;;;;;;;8.93;1.63;;;10.00;99.90;;;;;;5011449;28;20302;-78
2023/04/24 09:31:04;;;;;;;7.10;1.63;;;9.90;99.90;;;;;;4996360;28;20231;-81
2023/04/24 09:33:31;;;;;;;4.57;1.40;;;10.00;99.90;;;;;;4996113;28;20204;-79
2023/04/24 09:35:58;;;;;;;5.97;1.53;;;10.00;99.90;;;;;;4995950;28;20215;-78
2023/04/24 09:38:32;;;;;;;7.03;2.03;;;10.10;99.90;;;;;;4996323;28;20359;-79
2023/04/24 09:41:01;;;;;;;6.73;1.60;;;10.20;99.90;;;;;;5012476;28;20199;-78
2023/04/24 09:43:30;;;;;;;6.30;1.73;;;10.20;99.90;;;;;;5012789;28;20269;-80
2023/04/24 09:45:58;;;;;;;5.07;1.27;;;10.30;99.90;;;;;;4995952;28;20279;-81
2023/04/24 09:48:32;;;;;;;2.53;1.10;;;10.20;99.90;;;;;;4995635;28;20207;-80
2023/04/24 09:50:59;;;;;;;3.03;1.07;;;10.20;99.90;;;;;;4996774;28;20691;-79
2023/04/24 09:53:26;;;;;;;5.07;1.30;;;10.20;99.90;;;;;;5011283;28;20211;-79
2023/04/24 09:55:53;;;;;;;6.17;1.47;;;10.40;99.90;;;;;;5011874;28;20211;-79
2023/04/24 09:58:25;;;;;;;9.80;2.00;;;10.50;99.90;;;;;;5006656;28;20286;-81
2023/04/24 10:00:56;;;;;;;6.07;1.60;;;10.60;99.90;;;;;;5005378;28;20199;-80
2023/04/24 10:03:26;;;;;;;9.53;2.33;;;10.60;99.90;;;;;;5010578;28;20570;-80
2023/04/24 10:05:54;;;;;;;6.17;1.60;;;10.60;99.90;;;;;;5003009;28;20210;-81
2023/04/24 10:08:22;;;;;;;6.37;1.87;;;10.70;99.90;;;;;;5009153;28;20207;-80
2023/04/24 10:10:49;;;;;;;6.47;1.83;;;10.70;99.90;;;;;;5003878;28;20220;-79
2023/04/24 10:13:16;;;;;;;5.87;1.50;;;10.80;99.90;;;;;;5007706;28;20503;-77
2023/04/24 10:15:44;;;;;;;4.90;1.17;;;10.90;99.90;;;;;;5013007;28;20207;-76
2023/04/24 10:18:12;;;;;;;1.77;0.90;;;11.00;99.90;;;;;;5014524;28;20231;-77
2023/04/24 10:20:41;;;;;;;2.50;0.60;;;11.20;99.90;;;;;;5002559;28;20290;-77
2023/04/24 10:23:08;;;;;;;5.30;1.23;;;11.40;99.90;;;;;;4995096;28;20294;-78
2023/04/24 10:25:36;;;;;;;4.60;1.00;;;11.60;99.90;;;;;;4994670;28;20282;-76
2023/04/24 10:28:04;;;;;;;4.80;1.57;;;11.80;99.90;;;;;;4997357;28;20570;-78
2023/04/24 10:30:35;;;;;;;5.57;1.10;;;11.90;99.90;;;;;;5034277;28;20600;-76
2023/04/24 10:33:03;;;;;;;4.97;1.20;;;12.10;99.90;;;;;;5026300;28;20674;-77
2023/04/24 10:35:34;;;;;;;5.17;1.47;;;12.20;99.90;;;;;;5014501;28;20521;-76
2023/04/24 10:38:06;;;;;;;8.27;1.77;;;12.20;99.90;;;;;;5014539;28;20197;-78
2023/04/24 10:40:34;;;;;;;3.77;1.37;;;12.20;99.90;;;;;;5013532;28;20195;-78
2023/04/24 10:43:05;;;;;;;4.93;1.50;;;12.20;99.90;;;;;;5014218;28;20254;-76
2023/04/24 10:45:33;;;;;;;10.20;1.70;;;12.30;99.90;;;;;;5025134;28;20206;-79
2023/04/24 10:48:01;;;;;;;7.20;1.40;;;12.40;99.90;;;;;;5033953;28;20213;-79
2023/04/24 10:50:30;;;;;;;7.67;1.40;;;12.30;99.90;;;;;;5018298;28;20203;-77
2023/04/24 10:53:07;;;;;;;6.37;2.07;;;12.30;99.90;;;;;;5022205;28;20446;-77
2023/04/24 10:55:42;;;;;;;4.60;1.40;;;12.00;99.90;;;;;;5034624;28;20182;-78
2023/04/24 10:58:10;;;;;;;6.97;1.50;;;11.80;99.90;;;;;;5034187;28;20217;-77
2023/04/24 11:00:38;;;;;;;5.33;1.43;;;11.70;99.90;;;;;;5023205;28;20325;-77
2023/04/24 11:03:06;;;;;;;8.63;1.60;;;11.70;99.90;;;;;;5013914;28;20213;-77
2023/04/24 11:05:56;;;;;;;4.17;1.53;;;11.80;99.90;;;;;;5013912;28;20207;-77
2023/04/24 11:08:30;;;;;;;4.23;1.27;;;11.80;99.90;;;;;;5008576;28;20514;-76
2023/04/24 11:11:03;;;;;;;3.73;1.10;;;11.70;99.90;;;;;;5013722;28;20265;-79
2023/04/24 11:14:04;;;;;;;5.37;1.83;;;11.80;99.90;;;;;;5013518;28;20211;-77
2023/04/24 11:16:33;;;;;;;5.73;2.17;;;11.70;99.90;;;;;;5013684;28;20622;-77
2023/04/24 11:19:06;;;;;;;4.80;1.83;;;11.80;99.90;;;;;;5013933;28;20286;-77
2023/04/24 11:21:39;;;;;;;4.07;1.60;;;11.90;99.90;;;;;;5013680;28;20693;-76
2023/04/24 11:24:26;;;;;;;11.03;1.73;;;12.00;99.90;;;;;;5013446;28;20271;-78
2023/04/24 11:26:54;;;;;;;7.27;2.10;;;11.90;99.90;;;;;;5013687;28;20203;-76
2023/04/24 11:29:22;;;;;;;12.00;2.50;;;11.90;99.90;;;;;;5000958;28;20338;-77
2023/04/24 11:31:51;;;;;;;8.17;2.60;;;11.60;99.90;;;;;;4993709;28;20307;-78
2023/04/24 11:34:19;;;;;;;7.83;3.67;;;11.30;99.90;;;;;;4993298;28;20294;-76
2023/04/24 11:36:46;;;;;;;5.60;2.10;;;11.10;99.90;;;;;;4992875;28;20212;-77
2023/04/24 11:39:13;;;;;;;8.83;2.20;;;11.00;99.90;;;;;;4993778;28;20207;-77
2023/04/24 11:41:42;;;;;;;8.63;2.07;;;10.90;99.90;;;;;;4993750;28;20224;-77
2023/04/24 11:44:10;;;;;;;11.47;3.37;;;10.90;99.90;;;;;;5011396;28;20217;-78
2023/04/24 11:46:39;;;;;;;11.77;3.57;;;10.80;99.90;;;;;;5012945;28;20196;-78
2023/04/24 11:49:06;;;;;;;9.90;2.50;;;10.80;99.90;;;;;;5012687;28;20497;-78
2023/04/24 11:51:35;;;;;;;12.00;2.83;;;10.80;99.90;;;;;;5004004;28;20224;-77
2023/04/24 11:54:02;;;;;;;8.87;2.80;;;10.90;99.90;;;;;;4993226;28;20228;-77
2023/04/24 11:56:28;;;;;;;13.73;3.03;;;11.00;99.90;;;;;;4992915;28;20283;-78
2023/04/24 11:58:57;;;;;;;10.33;2.77;;;11.00;99.90;;;;;;4993193;28;20203;-78
2023/04/24 12:01:23;;;;;;;15.30;3.33;;;11.10;99.90;;;;;;4993525;28;20286;-78
2023/04/24 12:03:51;;;;;;;15.23;3.20;;;11.10;99.90;;;;;;4992361;28;20223;-77
2023/04/24 12:06:19;;;;;;;12.30;3.17;;;11.10;99.90;;;;;;5010239;28;20207;-77
2023/04/24 12:08:49;;;;;;;11.33;2.67;;;11.10;99.90;;;;;;5012791;28;20206;-77
2023/04/24 12:11:18;;;;;;;14.33;3.13;;;11.10;99.90;;;;;;5004682;28;20739;-77
2023/04/24 12:13:46;;;;;;;14.87;4.80;;;11.00;99.90;;;;;;4993138;28;20203;-77
2023/04/24 12:16:14;;;;;;;10.23;3.10;;;11.00;99.90;;;;;;4993359;28;20521;-78
2023/04/24 12:18:46;;;;;;;11.40;3.57;;;10.90;99.90;;;;;;4992432;28;20230;-77
2023/04/24 12:21:17;;;;;;;18.37;4.53;;;10.90;99.90;;;;;;4992873;28;20207;-78
2023/04/24 12:23:44;;;;;;;14.27;3.10;;;11.00;99.90;;;;;;4992828;28;20214;-77
2023/04/24 12:26:11;;;;;;;13.20;3.30;;;11.00;99.90;;;;;;4992354;28;20210;-76
2023/04/24 12:28:39;;;;;;;13.60;3.87;;;11.10;99.90;;;;;;4998250;28;20326;-78
2023/04/24 12:31:07;;;;;;;16.60;4.10;;;11.20;99.90;;;;;;5011817;28;20314;-78
2023/04/24 12:33:38;;;;;;;11.77;3.20;;;11.10;99.90;;;;;;5030476;28;20229;-78
2023/04/24 12:36:06;;;;;;;15.00;3.30;;;11.10;99.90;;;;;;5026141;28;20211;-78
2023/04/24 12:38:40;;;;;;;11.33;3.40;;;11.20;99.90;;;;;;5011681;28;20195;-79
2023/04/24 12:41:08;;;;;;;14.27;4.30;;;11.20;99.90;;;;;;5012220;28;20214;-75
2023/04/24 12:43:35;;;;;;;15.97;3.57;;;11.20;99.90;;;;;;5012462;28;20192;-79
2023/04/24 12:46:03;;;;;;;15.73;4.10;;;11.20;99.90;;;;;;5012401;28;20386;-77
2023/04/24 12:48:30;;;;;;;17.17;4.80;;;11.30;99.90;;;;;;5016342;28;20222;-76
2023/04/24 12:51:01;;;;;;;13.00;4.67;;;11.40;99.90;;;;;;5016428;28;20199;-77
2023/04/24 12:53:30;;;;;;;13.67;3.20;;;11.50;99.90;;;;;;5016048;28;20198;-76
2023/04/24 12:55:57;;;;;;;19.50;3.10;;;11.80;99.90;;;;;;5016518;28;20208;-77